sensor_id;sensor_type;location;lat;lon;timestamp;pressure;altitude;pressure_sealevel;temperature;humidity
2681;BME280;1350;42.134;24.708;2024-02-21T00:02:12;100169.91;;;7.81;100.00
2681;BME280;1350;42.134;24.708;2024-02-21T00:04:39;100168.03;;;7.85;100.00
2681;BME280;1350;42.134;24.708;2024-02-21T00:07:06;100160.94;;;7.87;100.00
2681;BME280;1350;42.134;24.708;2024-02-21T00:09:34;100155.00;;;7.80;100.00
2681;BME280;1350;42.134;24.708;2024-02-21T00:12:01;100156.72;;;7.81;100.00
2681;BME280;1350;42.134;24.708;2024-02-21T00:14:28;100162.97;;;7.79;100.00
2681;BME280;1350;42.134;24.708;2024-02-21T00:16:55;100155.09;;;7.77;100.00
2681;BME280;1350;42.134;24.708;2024-02-21T00:19:26;100154.84;;;7.85;100.00
2681;BME280;1350;42.134;24.708;2024-02-21T00:22:04;100161.00;;;7.85;100.00
2681;BME280;1350;42.134;24.708;2024-02-21T00:24:38;100154.06;;;7.81;100.00
2681;BME280;1350;42.134;24.708;2024-02-21T00:27:24;100161.00;;;7.85;100.00
2681;BME280;1350;42.134;24.708;2024-02-21T00:30:02;100149.97;;;7.73;100.00
2681;BME280;1350;42.134;24.708;2024-02-21T00:33:35;100157.72;;;7.77;100.00
2681;BME280;1350;42.134;24.708;2024-02-21T00:36:05;100147.38;;;7.71;100.00
2681;BME280;1350;42.134;24.708;2024-02-21T00:38:49;100147.06;;;7.80;100.00
2681;BME280;1350;42.134;24.708;2024-02-21T00:41:41;100146.66;;;7.66;100.00
2681;BME280;1350;42.134;24.708;2024-02-21T00:44:35;100128.22;;;7.65;100.00
2681;BME280;1350;42.134;24.708;2024-02-21T00:47:15;100138.91;;;7.60;100.00
2681;BME280;1350;42.134;24.708;2024-02-21T00:49:42;100137.22;;;7.59;100.00
2681;BME280;1350;42.134;24.708;2024-02-21T00:52:09;100141.22;;;7.71;100.00
2681;BME280;1350;42.134;24.708;2024-02-21T00:54:36;100126.22;;;7.73;100.00
2681;BME280;1350;42.134;24.708;2024-02-21T00:57:05;100130.81;;;7.66;100.00
2681;BME280;1350;42.134;24.708;2024-02-21T00:59:32;100129.03;;;7.67;100.00
2681;BME280;1350;42.134;24.708;2024-02-21T01:01:59;100130.97;;;7.62;100.00
2681;BME280;1350;42.134;24.708;2024-02-21T01:04:25;100130.97;;;7.62;100.00
2681;BME280;1350;42.134;24.708;2024-02-21T01:06:52;100134.16;;;7.71;100.00
2681;BME280;1350;42.134;24.708;2024-02-21T01:09:19;100126.34;;;7.68;100.00
2681;BME280;1350;42.134;24.708;2024-02-21T01:11:46;100126.34;;;7.68;100.00
2681;BME280;1350;42.134;24.708;2024-02-21T01:14:16;100123.38;;;7.79;100.00
2681;BME280;1350;42.134;24.708;2024-02-21T01:16:44;100119.13;;;7.75;100.00
2681;BME280;1350;42.134;24.708;2024-02-21T01:19:10;100122.50;;;7.78;100.00
2681;BME280;1350;42.134;24.708;2024-02-21T01:21:37;100115.50;;;7.77;100.00
2681;BME280;1350;42.134;24.708;2024-02-21T01:24:05;100119.94;;;7.75;100.00
2681;BME280;1350;42.134;24.708;2024-02-21T01:26:31;100118.13;;;7.77;100.00
2681;BME280;1350;42.134;24.708;2024-02-21T01:28:59;100112.44;;;7.89;100.00
2681;BME280;1350;42.134;24.708;2024-02-21T01:31:27;100115.41;;;7.80;100.00
2681;BME280;1350;42.134;24.708;2024-02-21T01:33:54;100104.78;;;7.82;100.00
2681;BME280;1350;42.134;24.708;2024-02-21T01:36:21;100097.53;;;7.88;100.00
2681;BME280;1350;42.134;24.708;2024-02-21T01:38:48;100107.59;;;7.77;100.00
2681;BME280;1350;42.134;24.708;2024-02-21T01:41:15;100112.91;;;7.76;100.00
2681;BME280;1350;42.134;24.708;2024-02-21T01:43:43;100100.44;;;7.81;100.00
2681;BME280;1350;42.134;24.708;2024-02-21T01:46:10;100098.59;;;7.83;100.00
2681;BME280;1350;42.134;24.708;2024-02-21T01:48:38;100099.41;;;7.85;100.00
2681;BME280;1350;42.134;24.708;2024-02-21T01:51:05;100096.19;;;7.75;100.00
2681;BME280;1350;42.134;24.708;2024-02-21T01:53:34;100100.75;;;7.72;100.00
2681;BME280;1350;42.134;24.708;2024-02-21T01:56:02;100095.38;;;7.75;100.00
2681;BME280;1350;42.134;24.708;2024-02-21T01:58:32;100088.13;;;7.80;100.00
2681;BME280;1350;42.134;24.708;2024-02-21T02:01:02;100095.06;;;7.84;100.00
2681;BME280;1350;42.134;24.708;2024-02-21T02:03:53;100087.38;;;7.76;100.00
2681;BME280;1350;42.134;24.708;2024-02-21T02:06:48;100081.09;;;7.80;100.00
2681;BME280;1350;42.134;24.708;2024-02-21T02:09:35;100088.03;;;7.83;100.00
2681;BME280;1350;42.134;24.708;2024-02-21T02:12:29;100086.09;;;7.88;100.00
2681;BME280;1350;42.134;24.708;2024-02-21T02:18:05;100080.41;;;8.00;100.00
2681;BME280;1350;42.134;24.708;2024-02-21T02:20:33;100082.09;;;8.02;100.00
2681;BME280;1350;42.134;24.708;2024-02-21T02:23:06;100082.31;;;7.96;100.00
2681;BME280;1350;42.134;24.708;2024-02-21T02:25:35;100082.63;;;8.12;100.00
2681;BME280;1350;42.134;24.708;2024-02-21T02:28:02;100085.25;;;8.12;100.00
2681;BME280;1350;42.134;24.708;2024-02-21T02:30:32;100088.56;;;8.18;100.00
2681;BME280;1350;42.134;24.708;2024-02-21T02:33:08;100088.38;;;8.24;100.00
2681;BME280;1350;42.134;24.708;2024-02-21T02:35:38;100082.00;;;8.31;100.00
2681;BME280;1350;42.134;24.708;2024-02-21T02:38:24;100088.06;;;8.33;100.00
2681;BME280;1350;42.134;24.708;2024-02-21T02:41:16;100091.41;;;8.38;100.00
2681;BME280;1350;42.134;24.708;2024-02-21T02:43:58;100089.59;;;8.40;100.00
2681;BME280;1350;42.134;24.708;2024-02-21T02:46:49;100088.06;;;8.33;100.00
2681;BME280;1350;42.134;24.708;2024-02-21T02:49:40;100089.53;;;8.42;100.00
2681;BME280;1350;42.134;24.708;2024-02-21T02:52:09;100088.53;;;8.44;100.00
2681;BME280;1350;42.134;24.708;2024-02-21T02:54:36;100098.13;;;8.48;100.00
2681;BME280;1350;42.134;24.708;2024-02-21T02:57:04;100096.03;;;8.56;100.00
2681;BME280;1350;42.134;24.708;2024-02-21T02:59:32;100096.59;;;8.41;100.00
2681;BME280;1350;42.134;24.708;2024-02-21T03:01:59;100099.59;;;8.55;100.00
2681;BME280;1350;42.134;24.708;2024-02-21T03:04:26;100096.47;;;8.69;100.00
2681;BME280;1350;42.134;24.708;2024-02-21T03:06:53;100099.91;;;8.71;100.00
2681;BME280;1350;42.134;24.708;2024-02-21T03:09:20;100098.81;;;8.77;100.00
2681;BME280;1350;42.134;24.708;2024-02-21T03:11:47;100091.41;;;8.86;100.00
2681;BME280;1350;42.134;24.708;2024-02-21T03:14:15;100101.28;;;8.81;100.00
2681;BME280;1350;42.134;24.708;2024-02-21T03:16:42;100102.06;;;8.85;100.00
2681;BME280;1350;42.134;24.708;2024-02-21T03:19:09;100097.47;;;8.90;100.00
2681;BME280;1350;42.134;24.708;2024-02-21T03:21:36;100091.06;;;8.95;100.00
2681;BME280;1350;42.134;24.708;2024-02-21T03:27:12;100087.59;;;8.95;100.00
2681;BME280;1350;42.134;24.708;2024-02-21T03:30:03;100089.59;;;8.88;100.00
2681;BME280;1350;42.134;24.708;2024-02-21T03:32:40;100087.91;;;8.86;100.00
2681;BME280;1350;42.134;24.708;2024-02-21T03:35:25;100085.78;;;8.95;100.00
2681;BME280;1350;42.134;24.708;2024-02-21T03:38:00;100081.59;;;8.90;100.00
2681;BME280;1350;42.134;24.708;2024-02-21T03:40:38;100082.41;;;8.92;100.00
2681;BME280;1350;42.134;24.708;2024-02-21T03:43:07;100082.47;;;8.90;100.00
2681;BME280;1350;42.134;24.708;2024-02-21T03:45:50;100075.31;;;8.92;100.00
2681;BME280;1350;42.134;24.708;2024-02-21T03:48:46;100079.53;;;8.98;100.00
2681;BME280;1350;42.134;24.708;2024-02-21T03:51:13;100083.06;;;8.97;100.00
2681;BME280;1350;42.134;24.708;2024-02-21T03:53:40;100075.66;;;9.06;100.00
2681;BME280;1350;42.134;24.708;2024-02-21T03:56:07;100083.53;;;8.85;100.00
2681;BME280;1350;42.134;24.708;2024-02-21T03:58:34;100077.97;;;8.92;100.00
2681;BME280;1350;42.134;24.708;2024-02-21T04:01:03;100093.00;;;8.92;100.00
2681;BME280;1350;42.134;24.708;2024-02-21T04:03:30;100088.19;;;8.78;100.00
2681;BME280;1350;42.134;24.708;2024-02-21T04:06:07;100091.13;;;8.71;100.00
2681;BME280;1350;42.134;24.708;2024-02-21T04:09:24;100092.03;;;8.70;100.00
2681;BME280;1350;42.134;24.708;2024-02-21T04:11:45;100091.84;;;8.51;100.00
2681;BME280;1350;42.134;24.708;2024-02-21T04:14:27;100091.56;;;8.58;100.00
2681;BME280;1350;42.134;24.708;2024-02-21T04:17:22;100099.56;;;8.57;100.00
2681;BME280;1350;42.134;24.708;2024-02-21T04:23:15;100092.56;;;8.31;100.00
2681;BME280;1350;42.134;24.708;2024-02-21T04:25:43;100081.22;;;8.28;100.00
2681;BME280;1350;42.134;24.708;2024-02-21T04:28:10;100090.97;;;8.26;100.00
2681;BME280;1350;42.134;24.708;2024-02-21T04:30:37;100091.09;;;8.21;100.00
2681;BME280;1350;42.134;24.708;2024-02-21T04:33:06;100095.78;;;8.13;100.00
2681;BME280;1350;42.134;24.708;2024-02-21T04:35:33;100096.50;;;8.18;100.00
2681;BME280;1350;42.134;24.708;2024-02-21T04:37:59;100100.38;;;8.08;100.00
2681;BME280;1350;42.134;24.708;2024-02-21T04:40:26;100108.19;;;8.11;100.00
2681;BME280;1350;42.134;24.708;2024-02-21T04:42:54;100111.63;;;8.13;100.00
2681;BME280;1350;42.134;24.708;2024-02-21T04:45:21;100110.94;;;8.08;100.00
2681;BME280;1350;42.134;24.708;2024-02-21T04:47:48;100114.16;;;8.16;100.00
2681;BME280;1350;42.134;24.708;2024-02-21T04:50:16;100113.69;;;8.31;100.00
2681;BME280;1350;42.134;24.708;2024-02-21T04:52:43;100116.78;;;8.18;100.00
2681;BME280;1350;42.134;24.708;2024-02-21T04:55:10;100122.34;;;8.09;100.00
2681;BME280;1350;42.134;24.708;2024-02-21T04:57:37;100129.97;;;8.18;100.00
2681;BME280;1350;42.134;24.708;2024-02-21T05:00:05;100127.22;;;8.22;100.00
2681;BME280;1350;42.134;24.708;2024-02-21T05:02:32;100126.31;;;8.22;100.00
2681;BME280;1350;42.134;24.708;2024-02-21T05:04:59;100130.94;;;8.15;100.00
2681;BME280;1350;42.134;24.708;2024-02-21T05:07:27;100131.09;;;8.37;100.00
2681;BME280;1350;42.134;24.708;2024-02-21T05:09:54;100127.78;;;8.30;100.00
2681;BME280;1350;42.134;24.708;2024-02-21T05:12:21;100128.63;;;8.32;100.00
2681;BME280;1350;42.134;24.708;2024-02-21T05:14:48;100131.25;;;8.32;100.00
2681;BME280;1350;42.134;24.708;2024-02-21T05:17:15;100137.84;;;8.19;100.00
2681;BME280;1350;42.134;24.708;2024-02-21T05:19:42;100144.28;;;8.11;100.00
2681;BME280;1350;42.134;24.708;2024-02-21T05:22:09;100144.59;;;8.02;100.00
2681;BME280;1350;42.134;24.708;2024-02-21T05:24:39;100139.13;;;8.08;100.00
2681;BME280;1350;42.134;24.708;2024-02-21T05:27:06;100140.50;;;8.19;100.00
2681;BME280;1350;42.134;24.708;2024-02-21T05:29:33;100140.84;;;8.35;100.00
2681;BME280;1350;42.134;24.708;2024-02-21T05:32:00;100147.38;;;8.25;100.00
2681;BME280;1350;42.134;24.708;2024-02-21T05:34:28;100150.25;;;8.17;100.00
2681;BME280;1350;42.134;24.708;2024-02-21T05:36:54;100151.84;;;8.23;100.00
2681;BME280;1350;42.134;24.708;2024-02-21T05:39:23;100152.22;;;8.11;100.00
2681;BME280;1350;42.134;24.708;2024-02-21T05:41:51;100156.03;;;8.02;100.00
2681;BME280;1350;42.134;24.708;2024-02-21T05:44:18;100159.34;;;7.81;100.00
2681;BME280;1350;42.134;24.708;2024-02-21T05:46:47;100160.72;;;7.67;100.00
2681;BME280;1350;42.134;24.708;2024-02-21T05:49:14;100161.78;;;7.60;100.00
2681;BME280;1350;42.134;24.708;2024-02-21T05:51:41;100161.41;;;7.44;100.00
2681;BME280;1350;42.134;24.708;2024-02-21T05:54:08;100167.09;;;7.31;100.00
2681;BME280;1350;42.134;24.708;2024-02-21T05:56:35;100160.97;;;7.30;100.00
2681;BME280;1350;42.134;24.708;2024-02-21T05:59:03;100162.59;;;7.34;100.00
2681;BME280;1350;42.134;24.708;2024-02-21T06:01:30;100163.09;;;7.18;100.00
2681;BME280;1350;42.134;24.708;2024-02-21T06:03:57;100167.66;;;7.13;100.00
2681;BME280;1350;42.134;24.708;2024-02-21T06:06:24;100161.34;;;7.47;100.00
2681;BME280;1350;42.134;24.708;2024-02-21T06:08:51;100164.28;;;7.64;100.00
2681;BME280;1350;42.134;24.708;2024-02-21T06:11:18;100173.38;;;7.83;100.00
2681;BME280;1350;42.134;24.708;2024-02-21T06:13:45;100171.00;;;8.02;100.00
2681;BME280;1350;42.134;24.708;2024-02-21T06:16:13;100175.31;;;8.04;100.00
2681;BME280;1350;42.134;24.708;2024-02-21T06:18:40;100178.06;;;8.01;100.00
2681;BME280;1350;42.134;24.708;2024-02-21T06:21:07;100180.38;;;8.10;100.00
2681;BME280;1350;42.134;24.708;2024-02-21T06:23:36;100185.53;;;8.15;100.00
2681;BME280;1350;42.134;24.708;2024-02-21T06:26:03;100193.28;;;8.21;100.00
2681;BME280;1350;42.134;24.708;2024-02-21T06:28:30;100190.09;;;8.37;100.00
2681;BME280;1350;42.134;24.708;2024-02-21T06:30:57;100193.25;;;8.48;100.00
2681;BME280;1350;42.134;24.708;2024-02-21T06:33:26;100194.91;;;8.51;100.00
2681;BME280;1350;42.134;24.708;2024-02-21T06:35:52;100197.06;;;8.65;100.00
2681;BME280;1350;42.134;24.708;2024-02-21T06:38:19;100192.50;;;8.70;100.00
2681;BME280;1350;42.134;24.708;2024-02-21T06:40:46;100192.09;;;8.55;100.00
2681;BME280;1350;42.134;24.708;2024-02-21T06:43:18;100199.41;;;8.47;100.00
2681;BME280;1350;42.134;24.708;2024-02-21T06:45:45;100193.19;;;8.75;100.00
2681;BME280;1350;42.134;24.708;2024-02-21T06:48:16;100197.28;;;8.83;100.00
2681;BME280;1350;42.134;24.708;2024-02-21T06:50:45;100198.25;;;9.05;100.00
2681;BME280;1350;42.134;24.708;2024-02-21T06:53:12;100197.38;;;9.05;100.00
2681;BME280;1350;42.134;24.708;2024-02-21T06:55:39;100197.31;;;9.06;100.00
2681;BME280;1350;42.134;24.708;2024-02-21T06:58:06;100198.44;;;9.24;100.00
2681;BME280;1350;42.134;24.708;2024-02-21T07:00:37;100208.34;;;9.42;100.00
2681;BME280;1350;42.134;24.708;2024-02-21T07:03:04;100198.88;;;9.36;100.00
2681;BME280;1350;42.134;24.708;2024-02-21T07:05:31;100204.81;;;9.41;100.00
2681;BME280;1350;42.134;24.708;2024-02-21T07:07:59;100200.81;;;9.54;100.00
2681;BME280;1350;42.134;24.708;2024-02-21T07:10:26;100201.50;;;9.59;100.00
2681;BME280;1350;42.134;24.708;2024-02-21T07:12:54;100198.38;;;9.71;100.00
2681;BME280;1350;42.134;24.708;2024-02-21T07:15:21;100200.53;;;10.05;100.00
2681;BME280;1350;42.134;24.708;2024-02-21T07:17:48;100196.78;;;10.32;100.00
2681;BME280;1350;42.134;24.708;2024-02-21T07:20:15;100195.25;;;10.48;100.00
2681;BME280;1350;42.134;24.708;2024-02-21T07:22:42;100193.13;;;10.14;100.00
2681;BME280;1350;42.134;24.708;2024-02-21T07:25:10;100208.22;;;10.12;100.00
2681;BME280;1350;42.134;24.708;2024-02-21T07:27:37;100195.88;;;10.33;100.00
2681;BME280;1350;42.134;24.708;2024-02-21T07:30:06;100198.56;;;10.53;100.00
2681;BME280;1350;42.134;24.708;2024-02-21T07:32:34;100207.50;;;10.71;100.00
2681;BME280;1350;42.134;24.708;2024-02-21T07:35:01;100202.13;;;10.72;100.00
2681;BME280;1350;42.134;24.708;2024-02-21T07:37:28;100206.34;;;10.98;100.00
2681;BME280;1350;42.134;24.708;2024-02-21T07:39:55;100203.00;;;11.13;100.00
2681;BME280;1350;42.134;24.708;2024-02-21T07:42:23;100197.72;;;10.93;100.00
2681;BME280;1350;42.134;24.708;2024-02-21T07:44:50;100199.34;;;10.95;100.00
2681;BME280;1350;42.134;24.708;2024-02-21T07:47:17;100198.06;;;11.24;100.00
2681;BME280;1350;42.134;24.708;2024-02-21T07:49:44;100210.22;;;11.48;100.00
2681;BME280;1350;42.134;24.708;2024-02-21T07:52:11;100208.22;;;11.34;100.00
2681;BME280;1350;42.134;24.708;2024-02-21T07:54:38;100208.50;;;11.47;100.00
2681;BME280;1350;42.134;24.708;2024-02-21T07:57:05;100208.53;;;11.65;100.00
2681;BME280;1350;42.134;24.708;2024-02-21T07:59:34;100212.50;;;11.75;100.00
2681;BME280;1350;42.134;24.708;2024-02-21T08:02:01;100211.84;;;11.89;100.00
2681;BME280;1350;42.134;24.708;2024-02-21T08:04:28;100206.31;;;11.93;100.00
2681;BME280;1350;42.134;24.708;2024-02-21T08:06:55;100206.69;;;12.22;100.00
2681;BME280;1350;42.134;24.708;2024-02-21T08:09:24;100207.38;;;12.08;100.00
2681;BME280;1350;42.134;24.708;2024-02-21T08:11:51;100209.00;;;12.11;97.84
2681;BME280;1350;42.134;24.708;2024-02-21T08:14:18;100212.53;;;12.11;96.05
2681;BME280;1350;42.134;24.708;2024-02-21T08:16:46;100204.50;;;12.13;96.00
2681;BME280;1350;42.134;24.708;2024-02-21T08:19:13;100206.91;;;12.53;95.42
2681;BME280;1350;42.134;24.708;2024-02-21T08:21:40;100206.59;;;12.76;94.85
2681;BME280;1350;42.134;24.708;2024-02-21T08:24:07;100215.06;;;13.01;90.89
2681;BME280;1350;42.134;24.708;2024-02-21T08:26:34;100209.88;;;12.98;89.63
2681;BME280;1350;42.134;24.708;2024-02-21T08:29:01;100210.13;;;13.10;88.86
2681;BME280;1350;42.134;24.708;2024-02-21T08:31:28;100213.72;;;12.75;85.46
2681;BME280;1350;42.134;24.708;2024-02-21T08:33:58;100213.97;;;12.71;87.31
2681;BME280;1350;42.134;24.708;2024-02-21T08:36:28;100210.03;;;12.78;88.68
2681;BME280;1350;42.134;24.708;2024-02-21T08:38:56;100218.28;;;13.07;87.84
2681;BME280;1350;42.134;24.708;2024-02-21T08:41:23;100214.28;;;13.16;83.94
2681;BME280;1350;42.134;24.708;2024-02-21T08:43:50;100220.63;;;13.13;83.05
2681;BME280;1350;42.134;24.708;2024-02-21T08:46:17;100218.56;;;13.18;84.59
2681;BME280;1350;42.134;24.708;2024-02-21T08:48:44;100216.63;;;13.22;86.28
2681;BME280;1350;42.134;24.708;2024-02-21T08:51:14;100212.09;;;13.39;85.54
2681;BME280;1350;42.134;24.708;2024-02-21T08:53:41;100215.94;;;13.51;85.78
2681;BME280;1350;42.134;24.708;2024-02-21T08:56:07;100212.41;;;13.66;84.95
2681;BME280;1350;42.134;24.708;2024-02-21T08:58:35;100210.97;;;13.61;84.55
2681;BME280;1350;42.134;24.708;2024-02-21T09:01:03;100219.69;;;13.47;85.34
2681;BME280;1350;42.134;24.708;2024-02-21T09:03:31;100215.78;;;13.70;85.72
2681;BME280;1350;42.134;24.708;2024-02-21T09:05:58;100218.34;;;14.18;84.03
2681;BME280;1350;42.134;24.708;2024-02-21T09:08:27;100218.56;;;14.75;80.44
2681;BME280;1350;42.134;24.708;2024-02-21T09:10:54;100216.53;;;15.52;75.06
2681;BME280;1350;42.134;24.708;2024-02-21T09:13:21;100217.75;;;16.29;69.74
2681;BME280;1350;42.134;24.708;2024-02-21T09:15:49;100213.00;;;16.73;66.05
2681;BME280;1350;42.134;24.708;2024-02-21T09:18:16;100208.34;;;17.02;66.16
2681;BME280;1350;42.134;24.708;2024-02-21T09:20:43;100205.59;;;17.79;59.77
2681;BME280;1350;42.134;24.708;2024-02-21T09:23:10;100201.94;;;17.80;54.21
2681;BME280;1350;42.134;24.708;2024-02-21T09:25:39;100205.47;;;18.16;52.43
2681;BME280;1350;42.134;24.708;2024-02-21T09:28:06;100202.69;;;18.18;51.45
2681;BME280;1350;42.134;24.708;2024-02-21T09:30:33;100203.47;;;18.67;51.24
2681;BME280;1350;42.134;24.708;2024-02-21T09:33:00;100193.63;;;18.79;49.36
2681;BME280;1350;42.134;24.708;2024-02-21T09:35:27;100197.31;;;19.23;48.60
2681;BME280;1350;42.134;24.708;2024-02-21T09:37:54;100193.56;;;19.48;48.43
2681;BME280;1350;42.134;24.708;2024-02-21T09:40:21;100195.63;;;19.88;47.41
2681;BME280;1350;42.134;24.708;2024-02-21T09:42:53;100190.88;;;20.03;47.13
2681;BME280;1350;42.134;24.708;2024-02-21T09:45:25;100189.38;;;20.32;46.65
2681;BME280;1350;42.134;24.708;2024-02-21T09:48:12;100188.38;;;20.22;45.50
2681;BME280;1350;42.134;24.708;2024-02-21T09:50:43;100189.78;;;19.61;46.22
2681;BME280;1350;42.134;24.708;2024-02-21T09:53:12;100182.03;;;20.23;45.93
2681;BME280;1350;42.134;24.708;2024-02-21T09:55:40;100189.38;;;19.33;46.16
2681;BME280;1350;42.134;24.708;2024-02-21T09:58:09;100183.63;;;20.26;45.09
2681;BME280;1350;42.134;24.708;2024-02-21T10:00:36;100170.59;;;20.73;44.33
2681;BME280;1350;42.134;24.708;2024-02-21T10:03:03;100181.28;;;20.64;43.06
2681;BME280;1350;42.134;24.708;2024-02-21T10:05:35;100174.44;;;21.12;41.88
2681;BME280;1350;42.134;24.708;2024-02-21T10:08:03;100169.66;;;20.84;42.23
2681;BME280;1350;42.134;24.708;2024-02-21T10:10:40;100161.75;;;21.03;42.72
2681;BME280;1350;42.134;24.708;2024-02-21T10:13:10;100156.88;;;21.17;42.32
2681;BME280;1350;42.134;24.708;2024-02-21T10:15:37;100152.47;;;21.37;41.83
2681;BME280;1350;42.134;24.708;2024-02-21T10:18:04;100154.84;;;21.10;40.29
2681;BME280;1350;42.134;24.708;2024-02-21T10:20:32;100148.63;;;20.57;41.43
2681;BME280;1350;42.134;24.708;2024-02-21T10:23:03;100147.44;;;20.71;41.72
2681;BME280;1350;42.134;24.708;2024-02-21T10:25:34;100136.41;;;20.74;41.63
2681;BME280;1350;42.134;24.708;2024-02-21T10:28:02;100136.03;;;20.99;40.67
2681;BME280;1350;42.134;24.708;2024-02-21T10:30:31;100119.16;;;21.27;40.52
2681;BME280;1350;42.134;24.708;2024-02-21T10:32:58;100119.19;;;21.57;40.52
2681;BME280;1350;42.134;24.708;2024-02-21T10:35:28;100111.47;;;21.83;40.17
2681;BME280;1350;42.134;24.708;2024-02-21T10:37:56;100107.88;;;21.73;40.24
2681;BME280;1350;42.134;24.708;2024-02-21T10:40:28;100097.91;;;21.33;40.05
2681;BME280;1350;42.134;24.708;2024-02-21T10:42:57;100096.06;;;21.34;40.09
2681;BME280;1350;42.134;24.708;2024-02-21T10:45:29;100094.94;;;21.06;40.18
2681;BME280;1350;42.134;24.708;2024-02-21T10:48:08;100091.22;;;21.37;39.97
2681;BME280;1350;42.134;24.708;2024-02-21T10:50:45;100081.66;;;22.13;39.28
2681;BME280;1350;42.134;24.708;2024-02-21T10:53:20;100079.41;;;22.37;38.92
2681;BME280;1350;42.134;24.708;2024-02-21T10:56:13;100076.69;;;22.27;38.47
2681;BME280;1350;42.134;24.708;2024-02-21T10:58:43;100075.22;;;21.76;38.47
2681;BME280;1350;42.134;24.708;2024-02-21T11:01:10;100067.44;;;21.22;39.74
2681;BME280;1350;42.134;24.708;2024-02-21T11:03:42;100066.28;;;20.94;39.63
2681;BME280;1350;42.134;24.708;2024-02-21T11:06:10;100060.44;;;21.10;39.39
2681;BME280;1350;42.134;24.708;2024-02-21T11:08:38;100064.91;;;21.60;38.98
2681;BME280;1350;42.134;24.708;2024-02-21T11:11:05;100062.59;;;21.16;38.85
2681;BME280;1350;42.134;24.708;2024-02-21T11:13:35;100051.94;;;21.14;38.86
2681;BME280;1350;42.134;24.708;2024-02-21T11:16:09;100052.63;;;20.86;39.30
2681;BME280;1350;42.134;24.708;2024-02-21T11:18:37;100045.44;;;21.56;38.69
2681;BME280;1350;42.134;24.708;2024-02-21T11:21:06;100045.22;;;20.58;39.70
2681;BME280;1350;42.134;24.708;2024-02-21T11:23:34;100047.59;;;21.23;39.20
2681;BME280;1350;42.134;24.708;2024-02-21T11:26:06;100048.66;;;22.00;38.68
2681;BME280;1350;42.134;24.708;2024-02-21T11:28:33;100042.84;;;22.14;38.07
2681;BME280;1350;42.134;24.708;2024-02-21T11:31:09;100043.50;;;21.78;38.27
2681;BME280;1350;42.134;24.708;2024-02-21T11:33:39;100040.56;;;21.90;38.21
2681;BME280;1350;42.134;24.708;2024-02-21T11:36:08;100031.03;;;21.86;36.88
2681;BME280;1350;42.134;24.708;2024-02-21T11:38:35;100026.94;;;22.11;37.12
2681;BME280;1350;42.134;24.708;2024-02-21T11:41:02;100023.19;;;22.50;36.95
2681;BME280;1350;42.134;24.708;2024-02-21T11:43:29;100020.34;;;22.70;36.02
2681;BME280;1350;42.134;24.708;2024-02-21T11:46:00;100025.06;;;22.59;36.22
2681;BME280;1350;42.134;24.708;2024-02-21T11:48:29;100025.88;;;22.78;36.22
2681;BME280;1350;42.134;24.708;2024-02-21T11:50:56;100015.66;;;22.34;35.42
2681;BME280;1350;42.134;24.708;2024-02-21T11:53:25;100016.41;;;21.98;35.59
2681;BME280;1350;42.134;24.708;2024-02-21T11:55:56;100008.78;;;21.63;36.02
2681;BME280;1350;42.134;24.708;2024-02-21T11:58:23;100009.44;;;22.05;36.49
2681;BME280;1350;42.134;24.708;2024-02-21T12:00:50;100008.31;;;22.08;35.36
2681;BME280;1350;42.134;24.708;2024-02-21T12:03:18;100005.75;;;21.97;35.62
2681;BME280;1350;42.134;24.708;2024-02-21T12:05:45;100002.84;;;21.20;36.31
2681;BME280;1350;42.134;24.708;2024-02-21T12:08:13;100010.19;;;20.88;36.51
2681;BME280;1350;42.134;24.708;2024-02-21T12:10:42;99996.84;;;21.07;36.31
2681;BME280;1350;42.134;24.708;2024-02-21T12:13:10;99992.78;;;21.22;36.35
2681;BME280;1350;42.134;24.708;2024-02-21T12:15:39;99983.69;;;21.73;36.38
2681;BME280;1350;42.134;24.708;2024-02-21T12:18:06;99989.06;;;21.73;36.45
2681;BME280;1350;42.134;24.708;2024-02-21T12:20:33;99980.97;;;21.63;36.10
2681;BME280;1350;42.134;24.708;2024-02-21T12:23:01;99973.72;;;21.14;36.21
2681;BME280;1350;42.134;24.708;2024-02-21T12:25:30;99969.78;;;21.18;36.52
2681;BME280;1350;42.134;24.708;2024-02-21T12:27:58;99972.66;;;21.45;36.60
2681;BME280;1350;42.134;24.708;2024-02-21T12:30:26;99971.41;;;21.40;36.63
2681;BME280;1350;42.134;24.708;2024-02-21T12:32:53;99970.63;;;21.97;36.24
2681;BME280;1350;42.134;24.708;2024-02-21T12:35:20;99961.19;;;20.74;37.20
2681;BME280;1350;42.134;24.708;2024-02-21T12:37:47;99958.44;;;20.34;38.36
2681;BME280;1350;42.134;24.708;2024-02-21T12:43:01;99958.13;;;20.58;37.44
2681;BME280;1350;42.134;24.708;2024-02-21T12:45:28;99956.00;;;20.82;36.80
2681;BME280;1350;42.134;24.708;2024-02-21T12:47:55;99942.66;;;20.80;36.53
2681;BME280;1350;42.134;24.708;2024-02-21T12:50:23;99937.63;;;19.84;37.27
2681;BME280;1350;42.134;24.708;2024-02-21T12:52:51;99938.56;;;19.62;37.31
2681;BME280;1350;42.134;24.708;2024-02-21T12:55:18;99934.84;;;19.74;37.89
2681;BME280;1350;42.134;24.708;2024-02-21T12:57:45;99932.53;;;20.22;37.84
2681;BME280;1350;42.134;24.708;2024-02-21T13:00:14;99925.25;;;20.34;37.19
2681;BME280;1350;42.134;24.708;2024-02-21T13:02:41;99935.22;;;20.22;37.06
2681;BME280;1350;42.134;24.708;2024-02-21T13:05:08;99938.09;;;19.89;37.52
2681;BME280;1350;42.134;24.708;2024-02-21T13:07:35;99928.16;;;19.69;37.29
2681;BME280;1350;42.134;24.708;2024-02-21T13:10:02;99919.56;;;19.75;36.83
2681;BME280;1350;42.134;24.708;2024-02-21T13:12:30;99914.34;;;19.31;37.85
2681;BME280;1350;42.134;24.708;2024-02-21T13:14:58;99913.81;;;19.68;37.84
2681;BME280;1350;42.134;24.708;2024-02-21T13:17:26;99915.41;;;19.39;37.34
2681;BME280;1350;42.134;24.708;2024-02-21T13:19:55;99913.13;;;19.13;37.98
2681;BME280;1350;42.134;24.708;2024-02-21T13:22:22;99916.38;;;18.96;38.09
2681;BME280;1350;42.134;24.708;2024-02-21T13:24:51;99909.41;;;18.49;38.71
2681;BME280;1350;42.134;24.708;2024-02-21T13:27:18;99906.56;;;18.28;39.74